X  Chiuso Dati meteorologici dell'aviazione (METAR)     LIBN Lecce Galatina Air Base
Temperatura
13°C Temperatura
11°C Punto di rugiada
88% Umidità



Vento
14 KM/H
9 MPH
4 M/S
8 KTS



140°
SE
Condizioni attuali

Nuvole per lo più sparse Nuvole per lo più sparse
Pressione 1007.92 (hPa) - 29.76 (inHg)
Visibilità 6.2 (miglio) - 10 (km)
Aeroporto
Aeroporto-code LIBN

Posizione Lecce Galatina Air Base 16 (km)

Metar:
LIBN 260355Z 14008KT 9999 SCT015 13/11 Q1008 RMK BKN BKN210 VIS MIN 9999 WIND THR14 15008KT WIND THR32 14009KT BLU

Ore: 26-02-2020 04:55 CET